Flight Track Log - Related Links

Times and Time Zones

All times are in EDT time to prevent confusion due to time zone crossing. See the N24WE flight status page for this flight to view local times or setup timezone preferences in your user account.

Time Position Orientation Groundspeed Altitude Reporting Facility
EDT Latitude Longitude Course Direction KTS MPH feet Rate Location/Type
Fri 09:04:31 PM 41.1031 -73.6586 80° East 142 163 2,500  Level Boston Center
Fri 09:05:32 PM 41.1044 -73.6006 88° East 149 171 2,600 97 Climbing Boston Center
Fri 09:06:35 PM 41.1089 -73.5397 84° East 159 183 2,700 339 Climbing Boston Center
Fri 09:07:36 PM 41.1144 -73.4797 83° East 163 188 3,300 595 Climbing Boston Center
Fri 09:08:46 PM 41.1167 -73.4000 88° East 153 176 4,000 600 Climbing New York TRACON
Fri 09:09:46 PM 41.1167 -73.3500 90° East 154 177 4,600 600 Climbing New York TRACON
Fri 09:10:46 PM 41.1333 -73.3000 66° East 155 178 5,200 500 Climbing New York TRACON
Fri 09:11:46 PM 41.1333 -73.2333 90° East 159 183 5,600 150 Climbing New York TRACON
Fri 09:12:46 PM 41.1333 -73.1667 90° East 178 205 5,500  Descending New York TRACON
Fri 09:13:46 PM 41.1500 -73.1167 66° East 177 204 5,600 50 Climbing New York TRACON
Fri 09:14:46 PM 41.1667 -73.0500 72° East 178 205 5,600  Level New York TRACON
Fri 09:15:46 PM 41.1667 -72.9833 90° East 177 204 5,600  Level New York TRACON
Fri 09:16:40 PM 41.1833 -72.9167 72° East 184 212 5,600 -53 Level New York TRACON
Fri 09:17:40 PM 41.1833 -72.8500 90° East 179 206 5,500 -48 Descending New York TRACON
Fri 09:18:46 PM 41.2000 -72.7833 72° East 180 207 5,500 48 Level New York TRACON
Fri 09:19:45 PM 41.2000 -72.7269 90° East 177 204 5,600 49 Climbing Boston Center
Fri 09:20:49 PM 41.2061 -72.6603 83° East 180 207 5,600  Level Boston Center
Fri 09:21:49 PM 41.2097 -72.5914 86° East 185 213 5,600  Level Boston Center
Fri 09:22:50 PM 41.2150 -72.5247 84° East 183 211 5,600 -49 Level Boston Center
Fri 09:23:51 PM 41.2186 -72.4558 86° East 185 213 5,500  Descending Boston Center
Fri 09:24:52 PM 41.2217 -72.3858 87° East 188 216 5,600 50 Climbing Boston Center
Fri 09:25:52 PM 41.2247 -72.3186 87° East 184 212 5,600 -82 Level Boston Center
Fri 09:26:05 PM 41.2267 -72.3008 82° East 182 209 5,500  Descending Boston Center
Fri 09:26:54 PM 41.2303 -72.2503 85° East 188 216 5,600  Climbing Boston Center
Fri 09:27:06 PM 41.2289 -72.2300 95° East 191 220 5,500  Descending Boston Center
Fri 09:27:54 PM 41.2314 -72.1814 86° East 187 215 5,600  Climbing Boston Center
Fri 09:28:07 PM 41.2306 -72.1617 93° East 183 211 5,500  Descending Boston Center
Fri 09:28:55 PM 41.2333 -72.1136 86° East 185 213 5,600  Climbing Boston Center
Fri 09:29:08 PM 41.2333 -72.0969 90° East 182 209 5,500  Descending Boston Center
Fri 09:29:56 PM 41.2378 -72.0456 83° East 186 214 5,600  Climbing Boston Center
Fri 09:30:08 PM 41.2381 -72.0239 89° East 185 213 5,500 -100 Descending Boston Center
Fri 09:30:56 PM 41.2453 -71.9672 80° East 179 206 5,500 -100 Level Boston Center
Fri 09:31:08 PM 41.2456 -71.9578 88° East 179 206 5,400  Descending Boston Center
Fri 09:31:59 PM 41.2492 -71.8992 85° East 182 209 5,500  Climbing Boston Center
Fri 09:32:08 PM 41.2489 -71.8903 92° East 184 212 5,400 98 Descending Boston Center
Fri 09:33:00 PM 41.2581 -71.8369 77° East 174 200 5,600 98 Climbing Boston Center
Fri 09:33:09 PM 41.2583 -71.8250 88° East 173 199 5,500 -80 Descending Boston Center
Fri 09:34:15 PM 41.2658 -71.7589 81° East 166 191 5,500  Level Boston Center
Fri 09:35:18 PM 41.2717 -71.6894 84° East 177 204 5,500  Level Boston Center
Fri 09:36:01 PM 41.2781 -71.6417 80° East 174 200 5,500  Level Boston Center
Fri 09:36:17 PM 41.2783 -71.6258 89° East 174 200 5,500  Level Boston Center
Fri 09:37:02 PM 41.2817 -71.5764 85° East 178 205 5,500 -100 Level Boston Center
Fri 09:37:17 PM 41.2811 -71.5611 93° East 178 205 5,400  Descending Boston Center
Fri 09:38:03 PM 41.2869 -71.5108 81° East 179 206 5,500 109 Climbing Boston Center
Fri 09:38:12 PM 41.2867 -71.5028 93° East 176 203 5,500  Level Boston Center
Fri 09:39:13 PM 41.2958 -71.4375 79° East 179 206 5,500  Level Boston Center
Fri 09:40:05 PM 41.3028 -71.3817 81° East 179 206 5,500 -54 Level Boston Center
Fri 09:41:05 PM 41.3108 -71.3117 81° East 178 205 5,400 -99 Descending Boston Center
Fri 09:42:06 PM 41.3192 -71.2469 80° East 180 207 5,300 -339 Descending Boston Center
Fri 09:43:09 PM 41.3306 -71.1817 77° East 183 211 4,700 -532 Descending Boston Center
Fri 09:44:10 PM 41.3475 -71.1156 71° East 189 217 4,200 -443 Descending Boston Center
Fri 09:45:11 PM 41.3644 -71.0481 71° East 181 208 3,800 -443 Descending Boston Center
Fri 09:46:12 PM 41.3681 -70.9769 86° East 192 221 3,300 -492 Descending Boston Center
Fri 09:47:13 PM 41.3683 -70.9064 90° East 193 222 2,800 -492 Descending Boston Center
Fri 09:48:14 PM 41.3667 -70.8367 92° East 190 219 2,300 -400 Descending Boston Center
Fri 09:49:13 PM 41.3681 -70.7697 88° East 182 209 2,000 -400 Descending Boston Center
Fri 09:50:14 PM 41.3669 -70.7014 91° East 174 200 1,500 -492 Descending Boston Center
Fri 09:51:15 PM 41.3669 -70.6514 90° East 138 159 1,000 -537 Descending Boston Center
Fri 09:52:17 PM 41.3806 -70.6256 55° Northeast 99 114 400 -581 Descending Boston Center

Login

Don't have an account? Register now (free) for customized features, flight alerts, and more!